createdAt,value
2018-12-25T00:00:09.509Z,1036.96
2018-12-25T00:01:09.484Z,1036.94
2018-12-25T00:02:09.491Z,1037.02
2018-12-25T00:03:09.449Z,1036.99
2018-12-25T00:04:09.456Z,1037.02
2018-12-25T00:05:09.494Z,1037.03
2018-12-25T00:06:09.705Z,1037.08
2018-12-25T00:07:09.477Z,1037.1
2018-12-25T00:08:09.460Z,1037.09
2018-12-25T00:09:09.566Z,1037.12
2018-12-25T00:10:09.482Z,1037.15
2018-12-25T00:11:09.465Z,1037.17
2018-12-25T00:12:09.544Z,1037.19
2018-12-25T00:13:09.414Z,1037.19
2018-12-25T00:14:09.454Z,1037.21
2018-12-25T00:15:09.592Z,1037.21
2018-12-25T00:16:09.456Z,1037.24
2018-12-25T00:17:09.493Z,1037.22
2018-12-25T00:18:09.459Z,1037.19
2018-12-25T00:19:09.461Z,1037.23
2018-12-25T00:20:09.440Z,1037.24
2018-12-25T00:21:09.481Z,1037.25
2018-12-25T00:22:09.226Z,1037.25
2018-12-25T00:23:09.692Z,1037.3
2018-12-25T00:24:09.477Z,1037.31
2018-12-25T00:25:09.426Z,1037.31
2018-12-25T00:26:10.245Z,1037.38
2018-12-25T00:27:09.669Z,1037.36
2018-12-25T00:28:09.594Z,1037.24
2018-12-25T00:29:09.762Z,1037.29
2018-12-25T00:30:09.530Z,1037.28
2018-12-25T00:31:09.494Z,1037.29
2018-12-25T00:32:09.476Z,1037.27
2018-12-25T00:33:09.564Z,1037.28
2018-12-25T00:34:09.632Z,1037.27
2018-12-25T00:35:09.474Z,1037.31
2018-12-25T00:36:09.457Z,1037.34
2018-12-25T00:37:09.923Z,1037.31
2018-12-25T00:38:09.460Z,1037.33
2018-12-25T00:39:09.452Z,1037.3
2018-12-25T00:40:09.637Z,1037.25
2018-12-25T00:41:09.588Z,1037.29
2018-12-25T00:42:09.446Z,1037.31
2018-12-25T00:43:09.701Z,1037.27
2018-12-25T00:44:09.661Z,1037.28
2018-12-25T00:45:09.593Z,1037.22
2018-12-25T00:46:09.479Z,1037.22
2018-12-25T00:47:09.420Z,1037.16
2018-12-25T00:48:09.954Z,1037.14
2018-12-25T00:49:15.146Z,1037.09
2018-12-25T00:50:09.603Z,1037.1
2018-12-25T00:51:09.406Z,1037.06
2018-12-25T00:52:09.270Z,1037.06
2018-12-25T00:53:09.592Z,1037.1
2018-12-25T00:54:09.472Z,1037.1
2018-12-25T00:55:09.705Z,1037.1
2018-12-25T00:56:09.562Z,1037.03
2018-12-25T00:57:09.805Z,1037.07
2018-12-25T00:58:09.729Z,1037.09
2018-12-25T00:59:09.490Z,1037.11
2018-12-25T01:00:10.217Z,1037.12
2018-12-25T01:01:09.601Z,1037.07
2018-12-25T01:02:09.662Z,1037.11
2018-12-25T01:03:09.614Z,1037.1
2018-12-25T01:04:09.826Z,1037.11
2018-12-25T01:05:09.365Z,1037.09
2018-12-25T01:06:09.379Z,1037.05
2018-12-25T01:07:10.001Z,1037.11
2018-12-25T01:08:09.645Z,1037.17
2018-12-25T01:09:09.396Z,1037.16
2018-12-25T01:10:09.414Z,1037.19
2018-12-25T01:11:09.498Z,1037.22
2018-12-25T01:12:09.391Z,1037.21
2018-12-25T01:13:09.392Z,1037.26
2018-12-25T01:14:09.728Z,1037.26
2018-12-25T01:15:09.796Z,1037.28
2018-12-25T01:16:09.393Z,1037.27
2018-12-25T01:17:09.351Z,1037.26
2018-12-25T01:18:09.412Z,1037.22
2018-12-25T01:19:09.745Z,1037.25
2018-12-25T01:20:09.406Z,1037.29
2018-12-25T01:21:09.364Z,1037.31
2018-12-25T01:22:09.518Z,1037.31
2018-12-25T01:23:10.189Z,1037.37
2018-12-25T01:24:09.556Z,1037.4
2018-12-25T01:25:09.408Z,1037.45
2018-12-25T01:26:09.383Z,1037.48
2018-12-25T01:27:09.389Z,1037.58
2018-12-25T01:28:09.667Z,1037.6
2018-12-25T01:29:09.571Z,1037.55
2018-12-25T01:30:09.641Z,1037.55
2018-12-25T01:31:09.690Z,1037.57
2018-12-25T01:32:09.606Z,1037.55
2018-12-25T01:33:09.531Z,1037.57
2018-12-25T01:34:09.825Z,1037.58
2018-12-25T01:35:10.160Z,1037.54
2018-12-25T01:36:09.337Z,1037.54
2018-12-25T01:37:09.609Z,1037.56
2018-12-25T01:38:09.519Z,1037.56
2018-12-25T01:39:09.335Z,1037.52
2018-12-25T01:40:09.325Z,1037.53
2018-12-25T01:41:09.323Z,1037.55
2018-12-25T01:42:09.572Z,1037.59
2018-12-25T01:43:09.461Z,1037.63
2018-12-25T01:44:09.387Z,1037.71
2018-12-25T01:45:09.405Z,1037.73
2018-12-25T01:46:09.362Z,1037.71
2018-12-25T01:47:09.322Z,1037.68
2018-12-25T01:48:09.338Z,1037.65
2018-12-25T01:49:09.356Z,1037.63
2018-12-25T01:50:09.376Z,1037.68
2018-12-25T01:51:09.418Z,1037.69
2018-12-25T01:52:09.438Z,1037.74
2018-12-25T01:53:09.345Z,1037.73
2018-12-25T01:54:09.416Z,1037.79
2018-12-25T01:55:09.359Z,1037.8
2018-12-25T01:56:09.405Z,1037.81
2018-12-25T01:57:09.402Z,1037.86
2018-12-25T01:58:09.481Z,1037.86
2018-12-25T01:59:09.463Z,1037.9
2018-12-25T02:00:09.518Z,1037.84
2018-12-25T02:01:09.356Z,1037.84
2018-12-25T02:02:09.689Z,1037.81
2018-12-25T02:03:09.619Z,1037.8
2018-12-25T02:04:09.430Z,1037.81
2018-12-25T02:05:09.429Z,1037.77
2018-12-25T02:06:09.350Z,1037.77
2018-12-25T02:07:09.671Z,1037.72
2018-12-25T02:08:09.566Z,1037.7
2018-12-25T02:09:09.477Z,1037.7
2018-12-25T02:10:09.627Z,1037.66
2018-12-25T02:11:09.724Z,1037.58
2018-12-25T02:12:09.625Z,1037.65
2018-12-25T02:13:09.509Z,1037.56
2018-12-25T02:14:09.467Z,1037.55
2018-12-25T02:15:09.371Z,1037.53
2018-12-25T02:16:09.553Z,1037.54
2018-12-25T02:17:09.410Z,1037.59
2018-12-25T02:18:09.360Z,1037.59
2018-12-25T02:19:10.004Z,1037.63
2018-12-25T02:20:09.671Z,1037.63
2018-12-25T02:21:09.451Z,1037.65
2018-12-25T02:22:09.458Z,1037.61
2018-12-25T02:23:09.302Z,1037.62
2018-12-25T02:24:09.422Z,1037.54
2018-12-25T02:25:09.379Z,1037.55
2018-12-25T02:26:09.323Z,1037.54
2018-12-25T02:27:09.817Z,1037.51
2018-12-25T02:28:09.505Z,1037.51
2018-12-25T02:29:09.726Z,1037.47
2018-12-25T02:30:09.751Z,1037.46
2018-12-25T02:31:09.404Z,1037.45
2018-12-25T02:32:09.530Z,1037.45
2018-12-25T02:33:09.498Z,1037.5
2018-12-25T02:34:10.074Z,1037.53
2018-12-25T02:35:09.554Z,1037.56
2018-12-25T02:36:09.355Z,1037.54
2018-12-25T02:37:09.683Z,1037.6
2018-12-25T02:38:09.327Z,1037.55
2018-12-25T02:39:09.576Z,1037.61
2018-12-25T02:40:09.310Z,1037.58
2018-12-25T02:41:09.236Z,1037.6
2018-12-25T02:42:09.352Z,1037.56
2018-12-25T02:43:09.718Z,1037.58
2018-12-25T02:44:09.612Z,1037.55
2018-12-25T02:45:09.337Z,1037.5
2018-12-25T02:46:09.652Z,1037.53
2018-12-25T02:47:09.531Z,1037.57
2018-12-25T02:48:09.339Z,1037.52
2018-12-25T02:49:09.413Z,1037.58
2018-12-25T02:50:09.645Z,1037.57
2018-12-25T02:51:09.786Z,1037.56
2018-12-25T02:52:09.236Z,1037.55
2018-12-25T02:53:09.364Z,1037.53
2018-12-25T02:54:09.403Z,1037.52
2018-12-25T02:55:09.370Z,1037.45
2018-12-25T02:56:09.492Z,1037.44
2018-12-25T02:57:09.618Z,1037.42
2018-12-25T02:58:09.278Z,1037.4
2018-12-25T02:59:09.327Z,1037.4
2018-12-25T03:00:10.297Z,1037.37
2018-12-25T03:01:09.517Z,1037.3
2018-12-25T03:02:09.777Z,1037.31
2018-12-25T03:03:09.266Z,1037.28
2018-12-25T03:04:09.430Z,1037.27
2018-12-25T03:05:09.235Z,1037.26
2018-12-25T03:06:09.488Z,1037.25
2018-12-25T03:07:09.571Z,1037.25
2018-12-25T03:08:09.263Z,1037.21
2018-12-25T03:09:09.313Z,1037.21
2018-12-25T03:10:09.507Z,1037.16
2018-12-25T03:11:09.224Z,1037.21
2018-12-25T03:12:09.238Z,1037.2
2018-12-25T03:13:09.281Z,1037.18
2018-12-25T03:14:09.598Z,1037.24
2018-12-25T03:15:09.280Z,1037.2
2018-12-25T03:16:09.438Z,1037.26
2018-12-25T03:17:09.221Z,1037.2
2018-12-25T03:18:09.335Z,1037.2
2018-12-25T03:19:09.531Z,1037.21
2018-12-25T03:20:09.249Z,1037.22
2018-12-25T03:21:09.198Z,1037.27
2018-12-25T03:22:09.252Z,1037.21
2018-12-25T03:23:09.436Z,1037.19
2018-12-25T03:24:09.286Z,1037.19
2018-12-25T03:25:09.179Z,1037.24
2018-12-25T03:26:09.176Z,1037.2
2018-12-25T03:27:09.220Z,1037.2
2018-12-25T03:28:09.180Z,1037.23
2018-12-25T03:29:09.178Z,1037.26
2018-12-25T03:30:09.243Z,1037.27
2018-12-25T03:31:09.202Z,1037.24
2018-12-25T03:32:09.210Z,1037.18
2018-12-25T03:33:09.227Z,1037.14
2018-12-25T03:34:09.202Z,1037.17
2018-12-25T03:35:09.311Z,1037.16
2018-12-25T03:36:09.166Z,1037.22
2018-12-25T03:37:09.205Z,1037.19
2018-12-25T03:38:09.129Z,1037.24
2018-12-25T03:39:09.175Z,1037.25
2018-12-25T03:40:09.181Z,1037.28
2018-12-25T03:41:09.579Z,1037.24
2018-12-25T03:42:09.445Z,1037.19
2018-12-25T03:43:09.508Z,1037.22
2018-12-25T03:44:09.411Z,1037.26
2018-12-25T03:45:09.466Z,1037.28
2018-12-25T03:46:09.435Z,1037.24
2018-12-25T03:47:09.599Z,1037.26
2018-12-25T03:48:09.552Z,1037.21
2018-12-25T03:49:09.638Z,1037.23
2018-12-25T03:50:11.196Z,1037.2
2018-12-25T03:51:09.393Z,1037.23
2018-12-25T03:52:09.140Z,1037.21
2018-12-25T03:53:09.732Z,1037.22
2018-12-25T03:54:09.637Z,1037.22
2018-12-25T03:55:09.133Z,1037.22
2018-12-25T03:56:09.339Z,1037.23
2018-12-25T03:57:09.258Z,1037.21
2018-12-25T03:58:09.301Z,1037.22
2018-12-25T03:59:09.132Z,1037.23
2018-12-25T04:00:09.142Z,1037.2
2018-12-25T04:01:09.145Z,1037.2
2018-12-25T04:02:09.513Z,1037.21
2018-12-25T04:03:09.529Z,1037.29
2018-12-25T04:04:09.154Z,1037.25
2018-12-25T04:05:09.159Z,1037.25
2018-12-25T04:06:09.722Z,1037.27
2018-12-25T04:07:09.607Z,1037.24
2018-12-25T04:08:09.360Z,1037.25
2018-12-25T04:09:09.205Z,1037.28
2018-12-25T04:10:09.483Z,1037.26
2018-12-25T04:11:09.204Z,1037.29
2018-12-25T04:12:09.226Z,1037.24
2018-12-25T04:13:09.293Z,1037.32
2018-12-25T04:14:10.289Z,1037.25
2018-12-25T04:15:09.244Z,1037.22
2018-12-25T04:16:09.500Z,1037.24
2018-12-25T04:17:09.121Z,1037.23
2018-12-25T04:18:09.460Z,1037.25
2018-12-25T04:19:09.183Z,1037.28
2018-12-25T04:20:09.267Z,1037.23
2018-12-25T04:21:09.354Z,1037.19
2018-12-25T04:22:09.276Z,1037.21
2018-12-25T04:23:09.195Z,1037.19
2018-12-25T04:24:09.547Z,1037.25
2018-12-25T04:25:09.350Z,1037.27
2018-12-25T04:26:09.109Z,1037.25
2018-12-25T04:27:09.094Z,1037.22
2018-12-25T04:28:09.274Z,1037.24
2018-12-25T04:29:09.378Z,1037.26
2018-12-25T04:30:09.245Z,1037.19
2018-12-25T04:31:09.232Z,1037.21
2018-12-25T04:32:09.324Z,1037.23
2018-12-25T04:33:09.066Z,1037.24
2018-12-25T04:34:09.213Z,1037.32
2018-12-25T04:35:09.371Z,1037.32
2018-12-25T04:36:09.459Z,1037.33
2018-12-25T04:37:09.617Z,1037.32
2018-12-25T04:38:09.780Z,1037.3
2018-12-25T04:39:09.294Z,1037.29
2018-12-25T04:40:09.182Z,1037.29
2018-12-25T04:41:09.283Z,1037.36
2018-12-25T04:42:09.185Z,1037.32
2018-12-25T04:43:09.057Z,1037.35
2018-12-25T04:44:09.115Z,1037.34
2018-12-25T04:45:09.258Z,1037.34
2018-12-25T04:46:09.310Z,1037.32
2018-12-25T04:47:09.274Z,1037.33
2018-12-25T04:48:09.355Z,1037.36
2018-12-25T04:49:09.485Z,1037.35
2018-12-25T04:50:09.880Z,1037.35
2018-12-25T04:51:09.265Z,1037.4
2018-12-25T04:52:09.319Z,1037.36
2018-12-25T04:53:09.067Z,1037.41
2018-12-25T04:54:09.330Z,1037.38
2018-12-25T04:55:09.170Z,1037.38
2018-12-25T04:56:09.548Z,1037.39
2018-12-25T04:57:09.146Z,1037.38
2018-12-25T04:58:09.296Z,1037.34
2018-12-25T04:59:09.316Z,1037.32
2018-12-25T05:00:09.151Z,1037.38
2018-12-25T05:01:09.277Z,1037.3
2018-12-25T05:02:09.081Z,1037.37
2018-12-25T05:03:09.054Z,1037.39
2018-12-25T05:04:10.172Z,1037.4
2018-12-25T05:05:09.092Z,1037.38
2018-12-25T05:06:09.275Z,1037.43
2018-12-25T05:07:09.132Z,1037.41
2018-12-25T05:08:09.039Z,1037.4
2018-12-25T05:09:09.073Z,1037.4
2018-12-25T05:10:09.059Z,1037.48
2018-12-25T05:11:09.041Z,1037.43
2018-12-25T05:12:09.153Z,1037.43
2018-12-25T05:13:09.396Z,1037.39
2018-12-25T05:14:09.050Z,1037.39
2018-12-25T05:15:09.086Z,1037.35
2018-12-25T05:16:09.046Z,1037.39
2018-12-25T05:17:09.078Z,1037.38
2018-12-25T05:18:09.233Z,1037.41
2018-12-25T05:19:08.997Z,1037.4
2018-12-25T05:20:09.141Z,1037.42
2018-12-25T05:21:09.164Z,1037.41
2018-12-25T05:22:09.076Z,1037.43
2018-12-25T05:23:09.130Z,1037.48
2018-12-25T05:24:09.341Z,1037.47
2018-12-25T05:25:09.269Z,1037.44
2018-12-25T05:26:09.207Z,1037.43
2018-12-25T05:27:09.539Z,1037.4
2018-12-25T05:28:09.088Z,1037.42
2018-12-25T05:29:09.087Z,1037.49
2018-12-25T05:30:09.173Z,1037.48
2018-12-25T05:31:09.008Z,1037.48
2018-12-25T05:32:09.628Z,1037.5
2018-12-25T05:33:08.980Z,1037.5
2018-12-25T05:34:09.557Z,1037.45
2018-12-25T05:35:09.063Z,1037.51
2018-12-25T05:36:09.409Z,1037.52
2018-12-25T05:37:09.259Z,1037.55
2018-12-25T05:38:09.038Z,1037.54
2018-12-25T05:39:09.190Z,1037.55
2018-12-25T05:40:10.073Z,1037.51
2018-12-25T05:41:09.167Z,1037.51
2018-12-25T05:42:09.476Z,1037.51
2018-12-25T05:43:09.124Z,1037.5
2018-12-25T05:44:09.253Z,1037.52
2018-12-25T05:45:09.060Z,1037.5
2018-12-25T05:46:10.237Z,1037.49
2018-12-25T05:47:09.144Z,1037.47
2018-12-25T05:48:09.161Z,1037.49
2018-12-25T05:49:08.983Z,1037.54
2018-12-25T05:50:09.019Z,1037.49
2018-12-25T05:51:09.117Z,1037.53
2018-12-25T05:52:09.080Z,1037.52
2018-12-25T05:53:08.958Z,1037.54
2018-12-25T05:54:09.157Z,1037.52
2018-12-25T05:55:09.056Z,1037.58
2018-12-25T05:56:09.345Z,1037.54
2018-12-25T05:57:13.010Z,1037.52
2018-12-25T05:58:09.247Z,1037.56
2018-12-25T05:59:09.185Z,1037.55
2018-12-25T06:00:09.259Z,1037.57
2018-12-25T06:01:09.065Z,1037.57
2018-12-25T06:02:09.124Z,1037.6
2018-12-25T06:03:09.335Z,1037.66
2018-12-25T06:04:09.124Z,1037.71
2018-12-25T06:05:08.970Z,1037.66
2018-12-25T06:06:08.970Z,1037.66
2018-12-25T06:07:09.130Z,1037.64
2018-12-25T06:08:09.165Z,1037.61
2018-12-25T06:09:09.093Z,1037.64
2018-12-25T06:10:08.989Z,1037.66
2018-12-25T06:11:09.199Z,1037.63
2018-12-25T06:12:09.196Z,1037.62
2018-12-25T06:13:09.360Z,1037.57
2018-12-25T06:14:09.138Z,1037.57
2018-12-25T06:15:09.025Z,1037.59
2018-12-25T06:16:09.320Z,1037.59
2018-12-25T06:17:09.377Z,1037.63
2018-12-25T06:18:09.331Z,1037.61
2018-12-25T06:19:09.041Z,1037.62
2018-12-25T06:20:09.225Z,1037.66
2018-12-25T06:21:09.261Z,1037.63
2018-12-25T06:22:09.046Z,1037.67
2018-12-25T06:23:09.125Z,1037.68
2018-12-25T06:24:09.805Z,1037.67
2018-12-25T06:25:09.072Z,1037.66
2018-12-25T06:26:09.108Z,1037.68
2018-12-25T06:27:09.010Z,1037.74
2018-12-25T06:28:09.297Z,1037.72
2018-12-25T06:29:09.121Z,1037.76
2018-12-25T06:30:08.974Z,1037.71
2018-12-25T06:31:08.993Z,1037.65
2018-12-25T06:32:09.777Z,1037.64
2018-12-25T06:33:09.004Z,1037.54
2018-12-25T06:34:09.011Z,1037.55
2018-12-25T06:35:09.123Z,1037.46
2018-12-25T06:36:09.622Z,1037.51
2018-12-25T06:37:09.103Z,1037.51
2018-12-25T06:38:09.334Z,1037.55
2018-12-25T06:39:08.696Z,1037.57
2018-12-25T06:40:09.470Z,1037.55
2018-12-25T06:41:08.985Z,1037.56
2018-12-25T06:42:09.031Z,1037.56
2018-12-25T06:43:09.503Z,1037.58
2018-12-25T06:44:09.124Z,1037.58
2018-12-25T06:45:08.975Z,1037.57
2018-12-25T06:46:09.000Z,1037.67
2018-12-25T06:47:08.974Z,1037.62
2018-12-25T06:48:08.971Z,1037.66
2018-12-25T06:49:08.978Z,1037.68
2018-12-25T06:50:08.913Z,1037.72
2018-12-25T06:51:09.033Z,1037.69
2018-12-25T06:52:09.030Z,1037.71
2018-12-25T06:53:08.961Z,1037.64
2018-12-25T06:54:09.008Z,1037.59
2018-12-25T06:55:09.032Z,1037.59
2018-12-25T06:56:08.982Z,1037.52
2018-12-25T06:57:09.026Z,1037.54
2018-12-25T06:58:08.971Z,1037.54
2018-12-25T06:59:09.023Z,1037.51
2018-12-25T07:00:09.290Z,1037.54
2018-12-25T07:01:09.018Z,1037.51
2018-12-25T07:02:08.878Z,1037.5
2018-12-25T07:03:09.202Z,1037.49
2018-12-25T07:04:08.950Z,1037.46
2018-12-25T07:05:09.291Z,1037.49
2018-12-25T07:06:08.973Z,1037.43
2018-12-25T07:07:09.306Z,1037.45
2018-12-25T07:08:09.105Z,1037.44
2018-12-25T07:09:08.922Z,1037.39
2018-12-25T07:10:09.154Z,1037.43
2018-12-25T07:11:08.903Z,1037.43
2018-12-25T07:12:08.960Z,1037.48
2018-12-25T07:13:08.964Z,1037.46
2018-12-25T07:14:09.057Z,1037.46
2018-12-25T07:15:09.542Z,1037.55
2018-12-25T07:16:08.924Z,1037.54
2018-12-25T07:17:08.952Z,1037.54
2018-12-25T07:18:09.258Z,1037.59
2018-12-25T07:19:09.062Z,1037.58
2018-12-25T07:20:09.328Z,1037.57
2018-12-25T07:21:12.530Z,1037.58
2018-12-25T07:22:09.036Z,1037.65
2018-12-25T07:23:09.071Z,1037.63
2018-12-25T07:24:09.715Z,1037.64
2018-12-25T07:25:09.184Z,1037.67
2018-12-25T07:26:08.917Z,1037.71
2018-12-25T07:27:08.967Z,1037.69
2018-12-25T07:28:09.024Z,1037.74
2018-12-25T07:29:08.959Z,1037.72
2018-12-25T07:30:09.272Z,1037.71
2018-12-25T07:31:09.045Z,1037.7
2018-12-25T07:32:09.477Z,1037.71
2018-12-25T07:33:08.878Z,1037.7
2018-12-25T07:34:09.248Z,1037.68
2018-12-25T07:35:09.023Z,1037.67
2018-12-25T07:36:09.602Z,1037.63
2018-12-25T07:37:09.194Z,1037.65
2018-12-25T07:38:09.151Z,1037.67
2018-12-25T07:39:08.986Z,1037.65
2018-12-25T07:40:09.253Z,1037.66
2018-12-25T07:41:08.961Z,1037.63
2018-12-25T07:42:08.981Z,1037.61
2018-12-25T07:43:09.062Z,1037.6
2018-12-25T07:44:08.963Z,1037.67
2018-12-25T07:45:08.971Z,1037.65
2018-12-25T07:46:08.964Z,1037.7
2018-12-25T07:47:11.244Z,1037.7
2018-12-25T07:48:08.963Z,1037.72
2018-12-25T07:49:08.964Z,1037.68
2018-12-25T07:50:08.976Z,1037.73
2018-12-25T07:51:08.972Z,1037.7
2018-12-25T07:52:08.836Z,1037.62
2018-12-25T07:53:08.800Z,1037.61
2018-12-25T07:54:08.890Z,1037.67
2018-12-25T07:55:08.825Z,1037.61
2018-12-25T07:56:09.125Z,1037.61
2018-12-25T07:57:08.806Z,1037.59
2018-12-25T07:58:09.031Z,1037.6
2018-12-25T07:59:08.911Z,1037.57
2018-12-25T08:00:08.936Z,1037.52
2018-12-25T08:01:08.860Z,1037.59
2018-12-25T08:02:08.903Z,1037.63
2018-12-25T08:03:08.982Z,1037.57
2018-12-25T08:04:08.825Z,1037.55
2018-12-25T08:05:09.003Z,1037.58
2018-12-25T08:06:09.005Z,1037.58
2018-12-25T08:07:09.025Z,1037.61
2018-12-25T08:08:08.989Z,1037.58
2018-12-25T08:09:08.948Z,1037.56
2018-12-25T08:10:08.817Z,1037.59
2018-12-25T08:11:09.264Z,1037.54
2018-12-25T08:12:09.021Z,1037.53
2018-12-25T08:13:09.126Z,1037.53
2018-12-25T08:14:08.989Z,1037.53
2018-12-25T08:15:08.784Z,1037.54
2018-12-25T08:16:09.172Z,1037.55
2018-12-25T08:17:08.950Z,1037.54
2018-12-25T08:18:09.093Z,1037.63
2018-12-25T08:19:09.046Z,1037.58
2018-12-25T08:20:09.002Z,1037.61
2018-12-25T08:21:09.394Z,1037.54
2018-12-25T08:22:08.848Z,1037.5
2018-12-25T08:23:08.800Z,1037.57
2018-12-25T08:24:08.745Z,1037.54
2018-12-25T08:25:08.749Z,1037.47
2018-12-25T08:26:08.961Z,1037.49
2018-12-25T08:27:08.784Z,1037.46
2018-12-25T08:28:08.773Z,1037.45
2018-12-25T08:29:09.017Z,1037.45
2018-12-25T08:30:08.936Z,1037.44
2018-12-25T08:31:08.932Z,1037.42
2018-12-25T08:32:08.775Z,1037.4
2018-12-25T08:33:08.758Z,1037.43
2018-12-25T08:34:08.783Z,1037.32
2018-12-25T08:35:08.773Z,1037.31
2018-12-25T08:36:08.779Z,1037.32
2018-12-25T08:37:08.890Z,1037.38
2018-12-25T08:38:08.925Z,1037.37
2018-12-25T08:39:09.124Z,1037.35
2018-12-25T08:40:08.973Z,1037.32
2018-12-25T08:41:08.984Z,1037.38
2018-12-25T08:42:09.147Z,1037.39
2018-12-25T08:43:08.712Z,1037.35
2018-12-25T08:44:08.797Z,1037.37
2018-12-25T08:45:09.578Z,1037.36
2018-12-25T08:46:08.746Z,1037.38
2018-12-25T08:47:08.728Z,1037.37
2018-12-25T08:48:09.455Z,1037.39
2018-12-25T08:49:08.918Z,1037.41
2018-12-25T08:50:09.007Z,1037.43
2018-12-25T08:51:09.183Z,1037.46
2018-12-25T08:52:08.898Z,1037.44
2018-12-25T08:53:09.078Z,1037.45
2018-12-25T08:54:09.172Z,1037.44
2018-12-25T08:55:08.981Z,1037.43
2018-12-25T08:56:09.047Z,1037.51
2018-12-25T08:57:08.958Z,1037.5
2018-12-25T08:58:08.721Z,1037.51
2018-12-25T08:59:08.726Z,1037.53
2018-12-25T09:00:09.529Z,1037.49
2018-12-25T09:01:09.063Z,1037.61
2018-12-25T09:02:08.801Z,1037.64
2018-12-25T09:03:08.749Z,1037.64
2018-12-25T09:04:08.790Z,1037.62
2018-12-25T09:05:09.137Z,1037.61
2018-12-25T09:06:09.546Z,1037.61
2018-12-25T09:07:08.944Z,1037.56
2018-12-25T09:08:08.748Z,1037.6
2018-12-25T09:09:08.934Z,1037.58
2018-12-25T09:10:08.753Z,1037.58
2018-12-25T09:11:08.691Z,1037.59
2018-12-25T09:12:09.060Z,1037.64
2018-12-25T09:13:09.093Z,1037.6
2018-12-25T09:14:08.763Z,1037.65
2018-12-25T09:15:08.805Z,1037.67
2018-12-25T09:16:08.982Z,1037.61
2018-12-25T09:17:09.127Z,1037.59
2018-12-25T09:18:08.718Z,1037.6
2018-12-25T09:19:08.885Z,1037.58
2018-12-25T09:20:09.105Z,1037.6
2018-12-25T09:21:08.734Z,1037.6
2018-12-25T09:22:08.706Z,1037.6
2018-12-25T09:23:08.724Z,1037.67
2018-12-25T09:24:08.798Z,1037.73
2018-12-25T09:25:10.912Z,1037.72
2018-12-25T09:26:09.012Z,1037.73
2018-12-25T09:27:08.915Z,1037.68
2018-12-25T09:28:09.056Z,1037.76
2018-12-25T09:29:09.036Z,1037.75
2018-12-25T09:30:09.035Z,1037.72
2018-12-25T09:31:08.764Z,1037.76
2018-12-25T09:32:09.280Z,1037.72
2018-12-25T09:33:09.030Z,1037.71
2018-12-25T09:34:08.721Z,1037.76
2018-12-25T09:35:08.683Z,1037.75
2018-12-25T09:36:08.681Z,1037.75
2018-12-25T09:37:08.668Z,1037.79
2018-12-25T09:38:08.714Z,1037.77
2018-12-25T09:39:08.973Z,1037.79
2018-12-25T09:40:08.485Z,1037.79
2018-12-25T09:41:08.704Z,1037.79
2018-12-25T09:42:09.430Z,1037.85
2018-12-25T09:43:08.665Z,1037.84
2018-12-25T09:44:08.733Z,1037.83
2018-12-25T09:45:08.673Z,1037.85
2018-12-25T09:46:08.838Z,1037.82
2018-12-25T09:47:08.671Z,1037.84
2018-12-25T09:48:13.725Z,1037.84
2018-12-25T09:49:08.973Z,1037.85
2018-12-25T09:50:09.263Z,1037.84
2018-12-25T09:51:09.050Z,1037.83
2018-12-25T09:52:08.920Z,1037.74
2018-12-25T09:53:08.641Z,1037.75
2018-12-25T09:54:08.682Z,1037.76
2018-12-25T09:55:08.988Z,1037.75
2018-12-25T09:57:08.652Z,1037.85
2018-12-25T09:58:10.165Z,1037.85
2018-12-25T09:59:08.794Z,1037.82
2018-12-25T10:00:08.736Z,1037.79
2018-12-25T10:01:08.643Z,1037.77
2018-12-25T10:02:08.627Z,1037.73
2018-12-25T10:03:08.635Z,1037.77
2018-12-25T10:04:08.618Z,1037.81
2018-12-25T10:05:08.978Z,1037.78
2018-12-25T10:06:08.614Z,1037.85
2018-12-25T10:07:08.605Z,1037.83
2018-12-25T10:08:11.494Z,1037.87
2018-12-25T10:09:08.677Z,1037.86
2018-12-25T10:10:08.635Z,1037.87
2018-12-25T10:11:08.967Z,1037.87
2018-12-25T10:12:08.674Z,1037.86
2018-12-25T10:13:08.678Z,1037.87
2018-12-25T10:14:08.767Z,1037.92
2018-12-25T10:15:09.039Z,1037.88
2018-12-25T10:16:08.613Z,1037.9
2018-12-25T10:17:08.982Z,1037.89
2018-12-25T10:18:09.012Z,1037.79
2018-12-25T10:19:09.964Z,1037.85
2018-12-25T10:20:08.706Z,1037.83
2018-12-25T10:21:08.838Z,1037.81
2018-12-25T10:22:08.710Z,1037.87
2018-12-25T10:23:08.629Z,1037.79
2018-12-25T10:24:08.996Z,1037.83
2018-12-25T10:25:08.925Z,1037.88
2018-12-25T10:26:12.643Z,1037.83
2018-12-25T10:27:09.078Z,1037.81
2018-12-25T10:28:08.751Z,1037.75
2018-12-25T10:29:08.928Z,1037.71
2018-12-25T10:30:08.615Z,1037.73
2018-12-25T10:31:08.723Z,1037.74
2018-12-25T10:32:09.026Z,1037.75
2018-12-25T10:33:08.738Z,1037.77
2018-12-25T10:34:08.593Z,1037.82
2018-12-25T10:35:08.574Z,1037.81
2018-12-25T10:36:08.547Z,1037.84
2018-12-25T10:37:08.751Z,1037.82
2018-12-25T10:38:08.583Z,1037.78
2018-12-25T10:39:09.101Z,1037.81
2018-12-25T10:40:08.968Z,1037.78
2018-12-25T10:41:08.672Z,1037.73
2018-12-25T10:42:08.727Z,1037.71
2018-12-25T10:43:08.744Z,1037.71
2018-12-25T10:44:08.710Z,1037.71
2018-12-25T10:45:08.745Z,1037.68
2018-12-25T10:46:08.589Z,1037.62
2018-12-25T10:47:08.558Z,1037.65
2018-12-25T10:48:08.739Z,1037.71
2018-12-25T10:49:08.900Z,1037.68
2018-12-25T10:50:08.630Z,1037.66
2018-12-25T10:51:08.792Z,1037.67
2018-12-25T10:52:12.105Z,1037.66
2018-12-25T10:53:08.581Z,1037.66
2018-12-25T10:54:08.619Z,1037.66
2018-12-25T10:55:08.678Z,1037.66
2018-12-25T10:56:08.703Z,1037.65
2018-12-25T10:57:11.509Z,1037.63
2018-12-25T10:58:09.039Z,1037.58
2018-12-25T10:59:09.346Z,1037.62
2018-12-25T11:00:08.682Z,1037.56
2018-12-25T11:01:08.684Z,1037.51
2018-12-25T11:02:08.654Z,1037.56
2018-12-25T11:03:08.790Z,1037.51
2018-12-25T11:04:09.766Z,1037.5
2018-12-25T11:06:13.620Z,1037.47
2018-12-25T11:07:08.961Z,1037.49
2018-12-25T11:08:08.683Z,1037.48
2018-12-25T11:09:08.621Z,1037.5
2018-12-25T11:10:08.565Z,1037.43
2018-12-25T11:11:08.669Z,1037.42
2018-12-25T11:12:09.378Z,1037.38
2018-12-25T11:13:08.616Z,1037.4
2018-12-25T11:14:08.591Z,1037.35
2018-12-25T11:15:08.605Z,1037.28
2018-12-25T11:16:08.983Z,1037.26
2018-12-25T11:17:09.187Z,1037.28
2018-12-25T11:18:08.667Z,1037.19
2018-12-25T11:19:08.516Z,1037.2
2018-12-25T11:20:11.886Z,1037.12
2018-12-25T11:21:08.554Z,1037.16
2018-12-25T11:22:09.360Z,1037.12
2018-12-25T11:23:08.664Z,1037.08
2018-12-25T11:24:08.840Z,1037.09
2018-12-25T11:25:08.780Z,1037.08
2018-12-25T11:26:08.775Z,1037.09
2018-12-25T11:27:09.345Z,1037.03
2018-12-25T11:28:08.556Z,1037.03
2018-12-25T11:29:09.323Z,1036.98
2018-12-25T11:30:08.614Z,1037
2018-12-25T11:31:08.513Z,1036.92
2018-12-25T11:32:08.665Z,1036.85
2018-12-25T11:33:09.324Z,1036.82
2018-12-25T11:34:08.953Z,1036.81
2018-12-25T11:35:08.693Z,1036.77
2018-12-25T11:36:08.539Z,1036.79
2018-12-25T11:37:08.497Z,1036.73
2018-12-25T11:38:08.563Z,1036.74
2018-12-25T11:39:08.505Z,1036.68
2018-12-25T11:40:08.738Z,1036.68
2018-12-25T11:41:08.773Z,1036.63
2018-12-25T11:42:08.533Z,1036.61
2018-12-25T11:43:08.466Z,1036.58
2018-12-25T11:44:08.501Z,1036.58
2018-12-25T11:45:08.532Z,1036.64
2018-12-25T11:46:08.541Z,1036.56
2018-12-25T11:47:08.567Z,1036.61
2018-12-25T11:48:08.501Z,1036.61
2018-12-25T11:49:08.573Z,1036.65
2018-12-25T11:50:08.542Z,1036.69
2018-12-25T11:51:08.552Z,1036.63
2018-12-25T11:52:08.493Z,1036.66
2018-12-25T11:53:08.460Z,1036.66
2018-12-25T11:54:08.488Z,1036.63
2018-12-25T11:55:08.562Z,1036.62
2018-12-25T11:56:08.444Z,1036.67
2018-12-25T11:57:08.552Z,1036.69
2018-12-25T11:58:08.652Z,1036.67
2018-12-25T11:59:08.521Z,1036.65
2018-12-25T12:00:08.631Z,1036.67
2018-12-25T12:01:08.586Z,1036.7
2018-12-25T12:02:17.417Z,1036.68
2018-12-25T12:03:09.189Z,1036.71
2018-12-25T12:04:15.612Z,1036.72
2018-12-25T12:05:11.461Z,1036.75
2018-12-25T12:06:09.796Z,1036.78
2018-12-25T12:07:11.437Z,1036.81
2018-12-25T12:08:08.689Z,1036.86
2018-12-25T12:09:09.407Z,1036.83